ADDS METAR Data INFO
IDs: Format: Raw Decoded Include TAF

Data at: 2331 UTC 19 Oct 2017

KHDO 192251Z AUTO 14011KT 10SM CLR 28/15 A3002 RMK AO2 SLP154 T02830150 $
KHDO 192151Z AUTO 13007KT 10SM FEW055 29/16 A3003 RMK AO2 SLP158 T02890156 $
KHDO 192051Z AUTO 14009KT 10SM FEW055 28/16 A3004 RMK AO2 SLP161 T02830156 56024 $
KHDO 191951Z AUTO 14009KT 10SM FEW043 BKN049 28/17 A3006 RMK AO2 SLP167 T02830167 $
KHDO 191851Z AUTO 13010KT 10SM SCT036 BKN046 27/17 A3009 RMK AO2 SLP176 T02720167 $
KHDO 191751Z AUTO 16009KT 10SM FEW027 BKN038 26/17 A3012 RMK AO2 SLP185 T02610172 10272 20150 58010 $
KHDO 191739Z AUTO 16009G15KT 10SM SCT027 BKN035 26/18 A3012 RMK AO2 T02610178 $
KHDO 191659Z AUTO 18006KT 10SM SCT021 BKN028 25/18 A3014 RMK AO2 T02500178 $
KHDO 191651Z AUTO 16008KT 10SM SCT021 BKN030 25/18 A3014 RMK AO2 SLP195 T02500178 $
KHDO 191621Z AUTO 17007KT 10SM BKN019 24/18 A3014 RMK AO2 T02390183 $
KHDO 191605Z AUTO 14006KT 10SM FEW017 SCT025 SCT032 24/18 A3014 RMK AO2 T02440183 $
KHDO 191551Z AUTO 11005KT 10SM BKN025 BKN032 24/18 A3015 RMK AO2 SLP197 T02390183 $
KHDO 191538Z AUTO 10004KT 10SM BKN025 23/18 A3014 RMK AO2 T02330183 $
KHDO 191451Z AUTO 09005KT 10SM CLR 22/18 A3013 RMK AO2 SLP192 T02170178 53012
KHDO 191411Z AUTO 03003KT 10SM FEW017 SCT026 19/16 A3013 RMK AO2 T01890161
KHDO 191351Z AUTO 03004KT 10SM SCT020 BKN025 18/16 A3012 RMK AO2 SLP189 T01780161
KHDO 191336Z AUTO 04004KT 7SM BKN022 17/15 A3012 RMK AO2 T01720150
KHDO 191259Z AUTO 04005KT 7SM SCT021 16/14 A3010 RMK AO2 T01560139
KHDO 191251Z AUTO 02004KT 7SM BKN018 BKN023 16/14 A3011 RMK AO2 SLP184 T01610139
KHDO 191151Z AUTO 04003KT 6SM BR OVC017 15/13 A3010 RMK AO2 SLP181 T01500133 10167 20106 56002 $
KHDO 191051Z AUTO 03005KT 7SM OVC016 14/13 A3010 RMK AO2 SLP180 T01440128 $
KHDO 191025Z AUTO 02004KT 8SM BKN015 12/11 A3009 RMK AO2 T01220106 $
KHDO 191011Z AUTO 03005KT 8SM SCT015 12/11 A3009 RMK AO2 T01220106 $
KHDO 191002Z AUTO 04005KT 8SM BKN015 12/11 A3009 RMK AO2 T01220106 $
KHDO 190951Z AUTO 04006KT 8SM SCT015 12/11 A3009 RMK AO2 SLP178 T01220106 $
KHDO 190851Z AUTO 03006KT 10SM CLR 11/09 A3010 RMK AO2 SLP182 T01110089 58005 $
KHDO 190751Z AUTO 05003KT 10SM CLR 11/08 A3011 RMK AO2 SLP184 T01110083 $
KHDO 190651Z AUTO 00000KT 10SM CLR 12/09 A3011 RMK AO2 SLP186 T01220089 $
KHDO 190551Z AUTO 15003KT 10SM CLR 17/12 A3012 RMK AO2 SLP187 T01670117 10233 20133 402890067 51007 $
KHDO 190451Z AUTO 11004KT 10SM CLR 14/09 A3012 RMK AO2 SLP187 T01390089 $
KHDO 190351Z AUTO 07003KT 10SM CLR 14/09 A3011 RMK AO2 SLP186 T01440094 $
KHDO 190251Z AUTO 12005KT 10SM CLR 19/10 A3010 RMK AO2 SLP181 T01940100 51007 $
KHDO 190151Z AUTO 11005KT 10SM CLR 21/10 A3009 RMK AO2 SLP181 T02060100
KHDO 190051Z AUTO 12003KT 10SM CLR 21/09 A3008 RMK AO2 SLP179 T02110094
KHDO 182351Z AUTO 15006KT 10SM CLR 23/09 A3008 RMK AO2 SLP176 T02330094 10289 20233 56005
KHDO 182251Z AUTO 13007KT 10SM CLR 27/09 A3008 RMK AO2 SLP176 T02670089
KHDO 182151Z AUTO 14007KT 10SM CLR 27/09 A3008 RMK AO2 SLP178 T02720089
KHDO 182051Z AUTO 18008KT 10SM CLR 28/09 A3009 RMK AO2 SLP178 T02830089 56025
KHDO 181951Z AUTO 21008KT 10SM CLR 29/10 A3010 RMK AO2 SLP183 T02890100
KHDO 181851Z AUTO VRB05KT 10SM CLR 27/09 A3014 RMK AO2 SLP198 T02670094
KHDO 181751Z AUTO 22008KT 10SM CLR 26/09 A3017 RMK AO2 SLP206 T02560089 10256 20067 58008
KHDO 181651Z AUTO 15006KT 10SM CLR 24/09 A3019 RMK AO2 SLP214 T02440094
KHDO 181551Z AUTO 19004KT 10SM CLR 22/11 A3019 RMK AO2 SLP216 T02170106
KHDO 181451Z AUTO 03003KT 10SM CLR 18/10 A3019 RMK AO2 SLP215 T01830100 53012 $
KHDO 181351Z AUTO 01004KT 10SM CLR 12/08 A3017 RMK AO2 SLP208 T01220078 $
KHDO 181251Z AUTO 36005KT 10SM CLR 07/04 A3016 RMK AO2 SLP206 T00670039 $
KHDO 181151Z AUTO 36006KT 10SM CLR 07/04 A3016 RMK AO2 SLP204 T00670044 10094 20067 53001 $